Terminal Aerodrome Forecast
Issued by NWS

Home | Current Version | Previous Version | Graphics & Text | Print | Product List | Glossary On
Versions: 1 2 3 4 5 6 7 8 9 10 11 12 13 14 15
000
FTUS43 KMPX 310600 AAA
TAFRWF
TAF AMD
KRWF 310603Z 3106/0106 35013KT P6SM SKC
     FM311100 35007KT P6SM FEW045
     FM312200 VRB03KT P6SM SKC=

USA.gov is the U.S. government's official web portal to all federal, state and local government web resources and services.